Date,TemperatureHighF,TemperatureAvgF,TemperatureLowF,DewpointHighF,DewpointAvgF,DewpointLowF,HumidityHigh,HumidityAvg,HumidityLow,PressureMaxIn,PressureMinIn,WindSpeedMaxMPH,WindSpeedAvgMPH,GustSpeedMaxMPH,PrecipitationSumIn
2013-3-1,55,42,27,24,20,10,72,42,28,30.50,30.35,13,6,22,0.00
2013-3-2,61,44,24,27,22,18,83,48,22,30.45,30.15,6,2,15,0.00
2013-3-3,59,49,43,32,18,-11,55,32,7,30.14,29.68,25,14,47,0.00
2013-3-4,55,44,27,27,23,20,79,45,26,30.07,29.67,24,7,42,0.00
2013-3-5,56,40,23,29,21,17,84,52,23,30.23,30.06,8,3,17,0.00
2013-3-6,57,48,40,28,24,21,56,41,26,30.05,29.81,12,6,24,0.00
2013-3-7,56,45,32,26,22,16,66,42,23,29.89,29.79,14,7,31,0.00
2013-3-8,43,34,24,34,28,17,95,80,50,29.80,29.58,18,7,36,0.35
2013-3-9,37,32,26,31,25,20,88,75,61,30.13,29.78,18,8,32,0.14
2013-3-10,46,37,31,28,22,13,81,58,31,30.28,30.13,15,10,26,0.03
2013-3-11,57,38,21,27,20,12,80,53,24,30.28,30.12,6,1,14,0.00
2013-3-12,59,42,28,30,25,20,82,55,26,30.26,30.15,7,2,18,0.00
2013-3-13,62,45,28,37,26,20,83,54,25,30.33,30.24,7,2,13,0.00
2013-3-14,68,48,31,33,25,16,78,47,14,30.29,30.15,5,2,15,0.00
2013-3-15,70,53,33,29,25,16,72,38,13,30.16,29.85,10,4,21,0.00
2013-3-16,66,52,34,39,27,18,86,43,16,29.85,29.62,20,6,33,0.00
2013-3-17,63,52,33,30,10,-9,80,25,6,29.81,29.70,16,9,34,0.00
2013-3-18,62,48,33,20,11,3,47,24,11,29.93,29.78,12,5,25,0.00
2013-3-19,58,46,30,26,21,17,74,39,22,30.09,29.86,10,3,19,0.00
2013-3-20,59,46,29,29,26,21,77,48,28,30.10,29.77,19,8,36,0.00
2013-3-21,63,52,35,30,16,-4,55,28,7,29.76,29.59,19,7,41,0.00
2013-3-22,60,44,26,24,5,-30,65,26,3,29.75,29.64,13,5,29,0.00
2013-3-23,46,37,20,6,-6,-38,55,19,2,30.07,29.70,20,10,38,0.00
2013-3-24,53,36,17,10,3,-5,58,29,9,30.18,30.03,15,5,32,0.00
2013-3-25,58,39,19,18,11,3,69,34,16,30.14,30.01,5,2,12,0.00
2013-3-26,62,50,36,20,16,13,44,26,17,30.07,29.80,14,6,28,0.00
2013-3-27,62,48,29,21,18,14,63,32,17,29.94,29.82,11,5,27,0.00
2013-3-28,64,52,40,25,21,15,41,30,20,29.97,29.90,12,6,24,0.00
2013-3-29,64,50,32,30,25,21,69,39,24,30.06,29.96,11,2,20,0.00
2013-3-30,61,48,34,33,26,24,72,47,26,30.08,29.98,8,2,18,0.00
2013-3-31,66,48,31,31,27,25,80,50,22,30.03,29.90,10,3,18,0.00